sensor_id;sensor_type;location;lat;lon;timestamp;P1;durP1;ratioP1;P2;durP2;ratioP2
31386;SDS011;69978;50.096;8.448;2023-05-08T00:01:48;7.72;;;3.55;;
31386;SDS011;69978;50.096;8.448;2023-05-08T00:04:14;9.05;;;3.15;;
31386;SDS011;69978;50.096;8.448;2023-05-08T00:06:40;8.15;;;3.22;;
31386;SDS011;69978;50.096;8.448;2023-05-08T00:09:08;6.55;;;3.53;;
31386;SDS011;69978;50.096;8.448;2023-05-08T00:11:34;6.88;;;3.33;;
31386;SDS011;69978;50.096;8.448;2023-05-08T00:14:00;5.65;;;3.10;;
31386;SDS011;69978;50.096;8.448;2023-05-08T00:16:25;7.45;;;3.70;;
31386;SDS011;69978;50.096;8.448;2023-05-08T00:18:51;8.65;;;3.95;;
31386;SDS011;69978;50.096;8.448;2023-05-08T00:21:18;7.20;;;3.60;;
31386;SDS011;69978;50.096;8.448;2023-05-08T00:23:43;8.85;;;3.72;;
31386;SDS011;69978;50.096;8.448;2023-05-08T00:26:09;7.53;;;3.65;;
31386;SDS011;69978;50.096;8.448;2023-05-08T00:28:34;6.53;;;3.60;;
31386;SDS011;69978;50.096;8.448;2023-05-08T00:31:00;8.93;;;3.70;;
31386;SDS011;69978;50.096;8.448;2023-05-08T00:33:26;6.40;;;3.60;;
31386;SDS011;69978;50.096;8.448;2023-05-08T00:35:58;8.70;;;4.10;;
31386;SDS011;69978;50.096;8.448;2023-05-08T00:38:25;10.48;;;4.05;;
31386;SDS011;69978;50.096;8.448;2023-05-08T00:40:51;11.13;;;4.47;;
31386;SDS011;69978;50.096;8.448;2023-05-08T00:43:16;8.75;;;3.97;;
31386;SDS011;69978;50.096;8.448;2023-05-08T00:45:42;7.22;;;3.60;;
31386;SDS011;69978;50.096;8.448;2023-05-08T00:48:07;6.82;;;3.80;;
31386;SDS011;69978;50.096;8.448;2023-05-08T00:50:33;8.35;;;3.83;;
31386;SDS011;69978;50.096;8.448;2023-05-08T00:53:00;7.75;;;3.90;;
31386;SDS011;69978;50.096;8.448;2023-05-08T00:55:28;10.05;;;3.90;;
31386;SDS011;69978;50.096;8.448;2023-05-08T00:57:54;13.10;;;4.50;;
31386;SDS011;69978;50.096;8.448;2023-05-08T01:00:20;6.30;;;4.05;;
31386;SDS011;69978;50.096;8.448;2023-05-08T01:02:47;6.95;;;3.70;;
31386;SDS011;69978;50.096;8.448;2023-05-08T01:05:12;7.82;;;3.95;;
31386;SDS011;69978;50.096;8.448;2023-05-08T01:07:38;8.15;;;4.30;;
31386;SDS011;69978;50.096;8.448;2023-05-08T01:10:07;7.63;;;4.07;;
31386;SDS011;69978;50.096;8.448;2023-05-08T01:15:59;7.35;;;4.00;;
31386;SDS011;69978;50.096;8.448;2023-05-08T01:18:26;5.82;;;3.83;;
31386;SDS011;69978;50.096;8.448;2023-05-08T01:21:39;10.73;;;4.60;;
31386;SDS011;69978;50.096;8.448;2023-05-08T01:24:40;7.93;;;4.32;;
31386;SDS011;69978;50.096;8.448;2023-05-08T01:32:21;7.35;;;3.85;;
31386;SDS011;69978;50.096;8.448;2023-05-08T01:37:27;7.63;;;4.00;;
31386;SDS011;69978;50.096;8.448;2023-05-08T01:40:01;7.07;;;4.28;;
31386;SDS011;69978;50.096;8.448;2023-05-08T01:45:31;8.45;;;4.18;;
31386;SDS011;69978;50.096;8.448;2023-05-08T01:48:11;11.25;;;4.82;;
31386;SDS011;69978;50.096;8.448;2023-05-08T01:50:43;7.32;;;4.28;;
31386;SDS011;69978;50.096;8.448;2023-05-08T01:56:25;7.80;;;4.57;;
31386;SDS011;69978;50.096;8.448;2023-05-08T01:58:53;10.45;;;4.68;;
31386;SDS011;69978;50.096;8.448;2023-05-08T02:01:23;8.45;;;4.30;;
31386;SDS011;69978;50.096;8.448;2023-05-08T02:03:50;11.07;;;4.18;;
31386;SDS011;69978;50.096;8.448;2023-05-08T02:06:19;8.45;;;3.97;;
31386;SDS011;69978;50.096;8.448;2023-05-08T02:08:46;7.07;;;4.25;;
31386;SDS011;69978;50.096;8.448;2023-05-08T02:11:12;8.27;;;3.60;;
31386;SDS011;69978;50.096;8.448;2023-05-08T02:13:40;7.65;;;4.68;;
31386;SDS011;69978;50.096;8.448;2023-05-08T02:16:14;6.28;;;3.75;;
31386;SDS011;69978;50.096;8.448;2023-05-08T02:18:41;6.93;;;4.00;;
31386;SDS011;69978;50.096;8.448;2023-05-08T02:21:10;10.38;;;4.43;;
31386;SDS011;69978;50.096;8.448;2023-05-08T02:23:38;6.80;;;3.92;;
31386;SDS011;69978;50.096;8.448;2023-05-08T02:26:05;7.78;;;4.03;;
31386;SDS011;69978;50.096;8.448;2023-05-08T02:28:38;8.18;;;4.13;;
31386;SDS011;69978;50.096;8.448;2023-05-08T02:31:04;13.05;;;4.40;;
31386;SDS011;69978;50.096;8.448;2023-05-08T02:33:32;6.40;;;3.92;;
31386;SDS011;69978;50.096;8.448;2023-05-08T02:35:58;7.82;;;3.78;;
31386;SDS011;69978;50.096;8.448;2023-05-08T02:38:26;8.00;;;3.50;;
31386;SDS011;69978;50.096;8.448;2023-05-08T02:40:54;10.73;;;3.92;;
31386;SDS011;69978;50.096;8.448;2023-05-08T02:43:24;7.47;;;3.85;;
31386;SDS011;69978;50.096;8.448;2023-05-08T02:45:55;8.88;;;3.70;;
31386;SDS011;69978;50.096;8.448;2023-05-08T02:48:40;6.90;;;3.75;;
31386;SDS011;69978;50.096;8.448;2023-05-08T02:53:52;8.75;;;3.50;;
31386;SDS011;69978;50.096;8.448;2023-05-08T02:59:06;12.52;;;4.00;;
31386;SDS011;69978;50.096;8.448;2023-05-08T03:04:14;10.95;;;3.80;;
31386;SDS011;69978;50.096;8.448;2023-05-08T03:06:48;7.65;;;3.55;;
31386;SDS011;69978;50.096;8.448;2023-05-08T03:09:19;6.80;;;3.05;;
31386;SDS011;69978;50.096;8.448;2023-05-08T03:11:47;6.07;;;3.42;;
31386;SDS011;69978;50.096;8.448;2023-05-08T03:14:18;9.57;;;3.83;;
31386;SDS011;69978;50.096;8.448;2023-05-08T03:16:46;5.88;;;3.58;;
31386;SDS011;69978;50.096;8.448;2023-05-08T03:19:18;8.80;;;3.70;;
31386;SDS011;69978;50.096;8.448;2023-05-08T03:21:51;9.35;;;3.60;;
31386;SDS011;69978;50.096;8.448;2023-05-08T03:24:18;6.68;;;3.35;;
31386;SDS011;69978;50.096;8.448;2023-05-08T03:26:46;5.65;;;3.00;;
31386;SDS011;69978;50.096;8.448;2023-05-08T03:29:12;8.70;;;3.60;;
31386;SDS011;69978;50.096;8.448;2023-05-08T03:31:38;8.27;;;3.92;;
31386;SDS011;69978;50.096;8.448;2023-05-08T03:34:06;8.50;;;3.80;;
31386;SDS011;69978;50.096;8.448;2023-05-08T03:36:33;5.20;;;3.50;;
31386;SDS011;69978;50.096;8.448;2023-05-08T03:38:59;7.68;;;3.50;;
31386;SDS011;69978;50.096;8.448;2023-05-08T03:41:25;9.57;;;3.22;;
31386;SDS011;69978;50.096;8.448;2023-05-08T03:43:52;7.40;;;3.25;;
31386;SDS011;69978;50.096;8.448;2023-05-08T03:46:18;6.05;;;3.33;;
31386;SDS011;69978;50.096;8.448;2023-05-08T03:48:45;9.65;;;3.60;;
31386;SDS011;69978;50.096;8.448;2023-05-08T03:51:13;5.78;;;3.55;;
31386;SDS011;69978;50.096;8.448;2023-05-08T03:53:40;7.75;;;3.88;;
31386;SDS011;69978;50.096;8.448;2023-05-08T03:56:06;8.80;;;3.35;;
31386;SDS011;69978;50.096;8.448;2023-05-08T03:58:34;6.13;;;3.25;;
31386;SDS011;69978;50.096;8.448;2023-05-08T04:01:17;5.53;;;3.60;;
31386;SDS011;69978;50.096;8.448;2023-05-08T04:06:45;5.72;;;3.33;;
31386;SDS011;69978;50.096;8.448;2023-05-08T04:09:19;8.40;;;3.25;;
31386;SDS011;69978;50.096;8.448;2023-05-08T04:11:55;8.05;;;3.65;;
31386;SDS011;69978;50.096;8.448;2023-05-08T04:14:33;7.45;;;3.72;;
31386;SDS011;69978;50.096;8.448;2023-05-08T04:17:04;7.40;;;3.87;;
31386;SDS011;69978;50.096;8.448;2023-05-08T04:19:35;4.60;;;3.10;;
31386;SDS011;69978;50.096;8.448;2023-05-08T04:22:05;4.75;;;3.20;;
31386;SDS011;69978;50.096;8.448;2023-05-08T04:24:32;8.73;;;3.42;;
31386;SDS011;69978;50.096;8.448;2023-05-08T04:27:01;8.15;;;3.65;;
31386;SDS011;69978;50.096;8.448;2023-05-08T04:29:27;4.90;;;3.03;;
31386;SDS011;69978;50.096;8.448;2023-05-08T04:31:53;6.57;;;3.60;;
31386;SDS011;69978;50.096;8.448;2023-05-08T04:34:21;6.90;;;3.50;;
31386;SDS011;69978;50.096;8.448;2023-05-08T04:36:47;7.57;;;4.10;;
31386;SDS011;69978;50.096;8.448;2023-05-08T04:39:13;6.30;;;3.63;;
31386;SDS011;69978;50.096;8.448;2023-05-08T04:41:42;9.30;;;3.78;;
31386;SDS011;69978;50.096;8.448;2023-05-08T04:44:07;6.90;;;3.90;;
31386;SDS011;69978;50.096;8.448;2023-05-08T04:46:33;6.63;;;3.75;;
31386;SDS011;69978;50.096;8.448;2023-05-08T04:51:51;10.13;;;3.88;;
31386;SDS011;69978;50.096;8.448;2023-05-08T04:54:17;7.00;;;4.05;;
31386;SDS011;69978;50.096;8.448;2023-05-08T04:56:42;6.57;;;3.88;;
31386;SDS011;69978;50.096;8.448;2023-05-08T04:59:08;6.43;;;3.92;;
31386;SDS011;69978;50.096;8.448;2023-05-08T05:01:33;6.88;;;3.83;;
31386;SDS011;69978;50.096;8.448;2023-05-08T05:04:00;12.10;;;4.63;;
31386;SDS011;69978;50.096;8.448;2023-05-08T05:06:25;6.45;;;3.70;;
31386;SDS011;69978;50.096;8.448;2023-05-08T05:08:51;8.20;;;4.07;;
31386;SDS011;69978;50.096;8.448;2023-05-08T05:11:17;6.82;;;3.85;;
31386;SDS011;69978;50.096;8.448;2023-05-08T05:13:42;5.63;;;3.60;;
31386;SDS011;69978;50.096;8.448;2023-05-08T05:16:08;6.15;;;3.70;;
31386;SDS011;69978;50.096;8.448;2023-05-08T05:18:37;11.07;;;3.80;;
31386;SDS011;69978;50.096;8.448;2023-05-08T05:21:03;9.45;;;4.32;;
31386;SDS011;69978;50.096;8.448;2023-05-08T05:23:28;5.63;;;3.83;;
31386;SDS011;69978;50.096;8.448;2023-05-08T05:25:54;7.82;;;3.92;;
31386;SDS011;69978;50.096;8.448;2023-05-08T05:28:20;6.78;;;3.65;;
31386;SDS011;69978;50.096;8.448;2023-05-08T05:30:46;6.65;;;4.15;;
31386;SDS011;69978;50.096;8.448;2023-05-08T05:33:12;6.80;;;3.70;;
31386;SDS011;69978;50.096;8.448;2023-05-08T05:35:38;8.05;;;4.35;;
31386;SDS011;69978;50.096;8.448;2023-05-08T05:38:04;5.18;;;3.58;;
31386;SDS011;69978;50.096;8.448;2023-05-08T05:40:30;5.45;;;3.60;;
31386;SDS011;69978;50.096;8.448;2023-05-08T05:42:58;10.32;;;4.50;;
31386;SDS011;69978;50.096;8.448;2023-05-08T05:45:24;10.93;;;3.70;;
31386;SDS011;69978;50.096;8.448;2023-05-08T05:47:50;7.63;;;3.70;;
31386;SDS011;69978;50.096;8.448;2023-05-08T05:50:18;6.07;;;3.80;;
31386;SDS011;69978;50.096;8.448;2023-05-08T05:52:44;9.50;;;3.80;;
31386;SDS011;69978;50.096;8.448;2023-05-08T05:55:10;9.65;;;4.30;;
31386;SDS011;69978;50.096;8.448;2023-05-08T05:57:35;7.50;;;4.10;;
31386;SDS011;69978;50.096;8.448;2023-05-08T06:00:02;7.47;;;3.92;;
31386;SDS011;69978;50.096;8.448;2023-05-08T06:02:28;9.23;;;3.90;;
31386;SDS011;69978;50.096;8.448;2023-05-08T06:04:54;9.68;;;4.00;;
31386;SDS011;69978;50.096;8.448;2023-05-08T06:07:20;10.60;;;4.45;;
31386;SDS011;69978;50.096;8.448;2023-05-08T06:09:46;7.53;;;4.10;;
31386;SDS011;69978;50.096;8.448;2023-05-08T06:12:11;6.07;;;4.03;;
31386;SDS011;69978;50.096;8.448;2023-05-08T06:14:37;8.30;;;4.40;;
31386;SDS011;69978;50.096;8.448;2023-05-08T06:17:03;8.20;;;4.43;;
31386;SDS011;69978;50.096;8.448;2023-05-08T06:19:28;7.15;;;3.65;;
31386;SDS011;69978;50.096;8.448;2023-05-08T06:21:54;7.75;;;4.03;;
31386;SDS011;69978;50.096;8.448;2023-05-08T06:24:20;6.88;;;3.53;;
31386;SDS011;69978;50.096;8.448;2023-05-08T06:26:45;7.65;;;3.72;;
31386;SDS011;69978;50.096;8.448;2023-05-08T06:29:11;7.50;;;4.03;;
31386;SDS011;69978;50.096;8.448;2023-05-08T06:31:37;6.78;;;4.18;;
31386;SDS011;69978;50.096;8.448;2023-05-08T06:34:02;7.75;;;4.03;;
31386;SDS011;69978;50.096;8.448;2023-05-08T06:36:28;6.75;;;3.70;;
31386;SDS011;69978;50.096;8.448;2023-05-08T06:38:53;9.32;;;4.00;;
31386;SDS011;69978;50.096;8.448;2023-05-08T06:41:19;8.90;;;4.28;;
31386;SDS011;69978;50.096;8.448;2023-05-08T06:43:45;7.13;;;3.55;;
31386;SDS011;69978;50.096;8.448;2023-05-08T06:46:11;9.27;;;4.07;;
31386;SDS011;69978;50.096;8.448;2023-05-08T06:48:36;7.75;;;3.60;;
31386;SDS011;69978;50.096;8.448;2023-05-08T06:51:02;7.72;;;4.13;;
31386;SDS011;69978;50.096;8.448;2023-05-08T06:53:28;6.57;;;3.47;;
31386;SDS011;69978;50.096;8.448;2023-05-08T06:55:54;7.55;;;3.85;;
31386;SDS011;69978;50.096;8.448;2023-05-08T06:58:21;8.07;;;4.20;;
31386;SDS011;69978;50.096;8.448;2023-05-08T07:00:47;6.90;;;4.13;;
31386;SDS011;69978;50.096;8.448;2023-05-08T07:03:12;6.80;;;3.85;;
31386;SDS011;69978;50.096;8.448;2023-05-08T07:05:38;8.88;;;4.28;;
31386;SDS011;69978;50.096;8.448;2023-05-08T07:08:04;6.88;;;3.70;;
31386;SDS011;69978;50.096;8.448;2023-05-08T07:10:32;9.35;;;3.65;;
31386;SDS011;69978;50.096;8.448;2023-05-08T07:12:59;9.48;;;4.00;;
31386;SDS011;69978;50.096;8.448;2023-05-08T07:15:24;6.00;;;3.72;;
31386;SDS011;69978;50.096;8.448;2023-05-08T07:17:50;5.72;;;3.78;;
31386;SDS011;69978;50.096;8.448;2023-05-08T07:20:15;8.00;;;3.65;;
31386;SDS011;69978;50.096;8.448;2023-05-08T07:22:57;5.95;;;3.72;;
31386;SDS011;69978;50.096;8.448;2023-05-08T07:25:22;7.13;;;4.00;;
31386;SDS011;69978;50.096;8.448;2023-05-08T07:27:48;9.18;;;3.80;;
31386;SDS011;69978;50.096;8.448;2023-05-08T07:30:13;7.10;;;4.00;;
31386;SDS011;69978;50.096;8.448;2023-05-08T07:32:39;6.57;;;3.92;;
31386;SDS011;69978;50.096;8.448;2023-05-08T07:35:05;5.50;;;3.63;;
31386;SDS011;69978;50.096;8.448;2023-05-08T07:37:33;7.53;;;3.75;;
31386;SDS011;69978;50.096;8.448;2023-05-08T07:39:59;10.85;;;4.40;;
31386;SDS011;69978;50.096;8.448;2023-05-08T07:42:24;8.10;;;3.70;;
31386;SDS011;69978;50.096;8.448;2023-05-08T07:44:50;6.50;;;3.60;;
31386;SDS011;69978;50.096;8.448;2023-05-08T07:47:16;8.35;;;4.15;;
31386;SDS011;69978;50.096;8.448;2023-05-08T07:49:42;6.50;;;4.00;;
31386;SDS011;69978;50.096;8.448;2023-05-08T07:52:07;10.05;;;3.53;;
31386;SDS011;69978;50.096;8.448;2023-05-08T07:54:33;7.25;;;3.28;;
31386;SDS011;69978;50.096;8.448;2023-05-08T07:56:58;6.72;;;3.92;;
31386;SDS011;69978;50.096;8.448;2023-05-08T07:59:24;6.97;;;3.90;;
31386;SDS011;69978;50.096;8.448;2023-05-08T08:01:50;6.03;;;3.85;;
31386;SDS011;69978;50.096;8.448;2023-05-08T08:04:16;6.07;;;3.45;;
31386;SDS011;69978;50.096;8.448;2023-05-08T08:06:42;5.15;;;3.50;;
31386;SDS011;69978;50.096;8.448;2023-05-08T08:09:07;6.55;;;3.55;;
31386;SDS011;69978;50.096;8.448;2023-05-08T08:14:04;6.90;;;3.53;;
31386;SDS011;69978;50.096;8.448;2023-05-08T08:16:30;6.30;;;3.47;;
31386;SDS011;69978;50.096;8.448;2023-05-08T08:18:55;6.32;;;3.60;;
31386;SDS011;69978;50.096;8.448;2023-05-08T08:21:21;5.68;;;3.58;;
31386;SDS011;69978;50.096;8.448;2023-05-08T08:23:47;5.32;;;3.28;;
31386;SDS011;69978;50.096;8.448;2023-05-08T08:26:12;10.65;;;3.30;;
31386;SDS011;69978;50.096;8.448;2023-05-08T08:28:38;4.18;;;3.00;;
31386;SDS011;69978;50.096;8.448;2023-05-08T08:31:03;5.45;;;2.75;;
31386;SDS011;69978;50.096;8.448;2023-05-08T08:33:29;7.97;;;3.63;;
31386;SDS011;69978;50.096;8.448;2023-05-08T08:35:54;7.82;;;2.90;;
31386;SDS011;69978;50.096;8.448;2023-05-08T08:38:20;4.00;;;2.60;;
31386;SDS011;69978;50.096;8.448;2023-05-08T08:40:46;5.50;;;2.92;;
31386;SDS011;69978;50.096;8.448;2023-05-08T08:43:11;7.25;;;2.90;;
31386;SDS011;69978;50.096;8.448;2023-05-08T08:45:37;6.32;;;3.00;;
31386;SDS011;69978;50.096;8.448;2023-05-08T08:48:03;5.28;;;2.83;;
31386;SDS011;69978;50.096;8.448;2023-05-08T08:50:33;4.47;;;2.70;;
31386;SDS011;69978;50.096;8.448;2023-05-08T08:53:10;5.53;;;3.03;;
31386;SDS011;69978;50.096;8.448;2023-05-08T08:55:45;5.43;;;2.95;;
31386;SDS011;69978;50.096;8.448;2023-05-08T08:58:17;5.05;;;3.00;;
31386;SDS011;69978;50.096;8.448;2023-05-08T09:00:48;4.20;;;2.90;;
31386;SDS011;69978;50.096;8.448;2023-05-08T09:03:14;8.35;;;3.20;;
31386;SDS011;69978;50.096;8.448;2023-05-08T09:05:40;4.30;;;2.80;;
31386;SDS011;69978;50.096;8.448;2023-05-08T09:08:09;4.70;;;2.58;;
31386;SDS011;69978;50.096;8.448;2023-05-08T09:10:35;4.88;;;2.45;;
31386;SDS011;69978;50.096;8.448;2023-05-08T09:13:04;3.42;;;2.45;;
31386;SDS011;69978;50.096;8.448;2023-05-08T09:15:30;5.75;;;2.88;;
31386;SDS011;69978;50.096;8.448;2023-05-08T09:17:57;4.45;;;2.72;;
31386;SDS011;69978;50.096;8.448;2023-05-08T09:20:22;6.68;;;3.42;;
31386;SDS011;69978;50.096;8.448;2023-05-08T09:22:49;4.63;;;2.72;;
31386;SDS011;69978;50.096;8.448;2023-05-08T09:25:16;5.95;;;3.10;;
31386;SDS011;69978;50.096;8.448;2023-05-08T09:27:43;5.57;;;3.25;;
31386;SDS011;69978;50.096;8.448;2023-05-08T09:30:09;5.25;;;2.60;;
31386;SDS011;69978;50.096;8.448;2023-05-08T09:32:37;4.55;;;2.78;;
31386;SDS011;69978;50.096;8.448;2023-05-08T09:35:04;6.53;;;2.83;;
31386;SDS011;69978;50.096;8.448;2023-05-08T09:37:31;3.67;;;2.53;;
31386;SDS011;69978;50.096;8.448;2023-05-08T09:42:38;3.83;;;2.65;;
31386;SDS011;69978;50.096;8.448;2023-05-08T09:45:04;6.22;;;2.90;;
31386;SDS011;69978;50.096;8.448;2023-05-08T09:47:30;4.25;;;2.90;;
31386;SDS011;69978;50.096;8.448;2023-05-08T09:50:09;5.22;;;3.50;;
31386;SDS011;69978;50.096;8.448;2023-05-08T09:52:36;6.32;;;2.78;;
31386;SDS011;69978;50.096;8.448;2023-05-08T09:55:03;4.88;;;3.00;;
31386;SDS011;69978;50.096;8.448;2023-05-08T09:57:30;5.28;;;3.00;;
31386;SDS011;69978;50.096;8.448;2023-05-08T10:00:08;4.22;;;2.75;;
31386;SDS011;69978;50.096;8.448;2023-05-08T10:02:35;5.50;;;3.40;;
31386;SDS011;69978;50.096;8.448;2023-05-08T10:05:02;5.53;;;2.67;;
31386;SDS011;69978;50.096;8.448;2023-05-08T10:07:30;7.90;;;3.20;;
31386;SDS011;69978;50.096;8.448;2023-05-08T10:09:58;4.70;;;3.20;;
31386;SDS011;69978;50.096;8.448;2023-05-08T10:12:25;5.57;;;3.28;;
31386;SDS011;69978;50.096;8.448;2023-05-08T10:14:52;5.47;;;3.00;;
31386;SDS011;69978;50.096;8.448;2023-05-08T10:17:19;4.90;;;3.10;;
31386;SDS011;69978;50.096;8.448;2023-05-08T10:20:12;6.35;;;2.83;;
31386;SDS011;69978;50.096;8.448;2023-05-08T10:22:39;5.53;;;3.22;;
31386;SDS011;69978;50.096;8.448;2023-05-08T10:25:09;7.53;;;3.20;;
31386;SDS011;69978;50.096;8.448;2023-05-08T10:30:08;5.15;;;2.85;;
31386;SDS011;69978;50.096;8.448;2023-05-08T10:32:37;5.38;;;2.90;;
31386;SDS011;69978;50.096;8.448;2023-05-08T10:35:09;6.55;;;2.97;;
31386;SDS011;69978;50.096;8.448;2023-05-08T10:37:36;4.47;;;3.03;;
31386;SDS011;69978;50.096;8.448;2023-05-08T10:40:03;5.70;;;2.97;;
31386;SDS011;69978;50.096;8.448;2023-05-08T10:42:32;6.75;;;3.13;;
31386;SDS011;69978;50.096;8.448;2023-05-08T10:44:59;5.72;;;3.28;;
31386;SDS011;69978;50.096;8.448;2023-05-08T10:50:06;6.53;;;3.17;;
31386;SDS011;69978;50.096;8.448;2023-05-08T10:52:49;5.15;;;3.30;;
31386;SDS011;69978;50.096;8.448;2023-05-08T10:55:29;4.93;;;3.30;;
31386;SDS011;69978;50.096;8.448;2023-05-08T11:03:18;7.38;;;4.45;;
31386;SDS011;69978;50.096;8.448;2023-05-08T11:05:46;5.57;;;3.83;;
31386;SDS011;69978;50.096;8.448;2023-05-08T11:08:30;7.55;;;3.75;;
31386;SDS011;69978;50.096;8.448;2023-05-08T11:13:29;10.07;;;4.00;;
31386;SDS011;69978;50.096;8.448;2023-05-08T11:15:56;6.32;;;4.18;;
31386;SDS011;69978;50.096;8.448;2023-05-08T11:18:22;6.63;;;4.05;;
31386;SDS011;69978;50.096;8.448;2023-05-08T11:21:13;7.30;;;3.78;;
31386;SDS011;69978;50.096;8.448;2023-05-08T11:23:39;7.88;;;4.10;;
31386;SDS011;69978;50.096;8.448;2023-05-08T11:26:05;8.70;;;3.92;;
31386;SDS011;69978;50.096;8.448;2023-05-08T11:28:38;8.38;;;3.53;;
31386;SDS011;69978;50.096;8.448;2023-05-08T11:31:20;9.18;;;4.22;;
31386;SDS011;69978;50.096;8.448;2023-05-08T11:33:46;6.55;;;3.63;;
31386;SDS011;69978;50.096;8.448;2023-05-08T11:38:42;8.27;;;3.90;;
31386;SDS011;69978;50.096;8.448;2023-05-08T11:41:28;7.25;;;4.30;;
31386;SDS011;69978;50.096;8.448;2023-05-08T11:46:40;8.88;;;4.10;;
31386;SDS011;69978;50.096;8.448;2023-05-08T11:49:14;5.70;;;3.72;;
31386;SDS011;69978;50.096;8.448;2023-05-08T11:51:41;5.43;;;3.50;;
31386;SDS011;69978;50.096;8.448;2023-05-08T11:54:11;7.10;;;3.97;;
31386;SDS011;69978;50.096;8.448;2023-05-08T11:56:38;6.82;;;3.78;;
31386;SDS011;69978;50.096;8.448;2023-05-08T11:59:04;4.63;;;3.53;;
31386;SDS011;69978;50.096;8.448;2023-05-08T12:01:30;6.28;;;3.88;;
31386;SDS011;69978;50.096;8.448;2023-05-08T12:04:06;6.88;;;4.20;;
31386;SDS011;69978;50.096;8.448;2023-05-08T12:06:34;5.75;;;3.58;;
31386;SDS011;69978;50.096;8.448;2023-05-08T12:09:02;8.98;;;4.22;;
31386;SDS011;69978;50.096;8.448;2023-05-08T12:11:33;6.15;;;3.42;;
31386;SDS011;69978;50.096;8.448;2023-05-08T12:13:59;7.05;;;4.10;;
31386;SDS011;69978;50.096;8.448;2023-05-08T12:16:25;6.03;;;3.80;;
31386;SDS011;69978;50.096;8.448;2023-05-08T12:18:51;6.57;;;3.85;;
31386;SDS011;69978;50.096;8.448;2023-05-08T12:21:20;5.45;;;3.63;;
31386;SDS011;69978;50.096;8.448;2023-05-08T12:23:45;6.03;;;3.83;;
31386;SDS011;69978;50.096;8.448;2023-05-08T12:26:11;7.32;;;3.88;;
31386;SDS011;69978;50.096;8.448;2023-05-08T12:28:37;5.57;;;3.70;;
31386;SDS011;69978;50.096;8.448;2023-05-08T12:31:04;7.47;;;3.90;;
31386;SDS011;69978;50.096;8.448;2023-05-08T12:33:31;6.20;;;3.63;;
31386;SDS011;69978;50.096;8.448;2023-05-08T12:35:58;10.02;;;4.03;;
31386;SDS011;69978;50.096;8.448;2023-05-08T12:38:25;8.48;;;3.60;;
31386;SDS011;69978;50.096;8.448;2023-05-08T12:40:51;6.68;;;3.70;;
31386;SDS011;69978;50.096;8.448;2023-05-08T12:43:19;6.78;;;3.58;;
31386;SDS011;69978;50.096;8.448;2023-05-08T12:45:45;5.68;;;3.33;;
31386;SDS011;69978;50.096;8.448;2023-05-08T12:48:16;8.32;;;3.90;;
31386;SDS011;69978;50.096;8.448;2023-05-08T12:50:43;6.40;;;3.80;;
31386;SDS011;69978;50.096;8.448;2023-05-08T12:55:49;6.47;;;4.00;;
31386;SDS011;69978;50.096;8.448;2023-05-08T12:58:19;7.70;;;4.32;;
31386;SDS011;69978;50.096;8.448;2023-05-08T13:00:50;6.65;;;4.15;;
31386;SDS011;69978;50.096;8.448;2023-05-08T13:03:23;5.93;;;4.03;;
31386;SDS011;69978;50.096;8.448;2023-05-08T13:05:50;6.47;;;4.10;;
31386;SDS011;69978;50.096;8.448;2023-05-08T13:08:17;6.03;;;3.60;;
31386;SDS011;69978;50.096;8.448;2023-05-08T13:10:44;6.90;;;4.00;;
31386;SDS011;69978;50.096;8.448;2023-05-08T13:13:13;7.18;;;3.47;;
31386;SDS011;69978;50.096;8.448;2023-05-08T13:15:40;6.43;;;3.80;;
31386;SDS011;69978;50.096;8.448;2023-05-08T13:18:06;7.00;;;3.78;;
31386;SDS011;69978;50.096;8.448;2023-05-08T13:20:32;5.97;;;4.43;;
31386;SDS011;69978;50.096;8.448;2023-05-08T13:22:58;7.00;;;3.83;;
31386;SDS011;69978;50.096;8.448;2023-05-08T13:25:24;7.50;;;4.20;;
31386;SDS011;69978;50.096;8.448;2023-05-08T13:27:49;8.95;;;4.43;;
31386;SDS011;69978;50.096;8.448;2023-05-08T13:30:15;7.50;;;3.70;;
31386;SDS011;69978;50.096;8.448;2023-05-08T13:32:41;7.05;;;4.20;;
31386;SDS011;69978;50.096;8.448;2023-05-08T13:35:07;8.38;;;4.38;;
31386;SDS011;69978;50.096;8.448;2023-05-08T13:37:33;7.60;;;4.38;;
31386;SDS011;69978;50.096;8.448;2023-05-08T13:39:58;7.10;;;3.95;;
31386;SDS011;69978;50.096;8.448;2023-05-08T13:42:24;7.97;;;4.63;;
31386;SDS011;69978;50.096;8.448;2023-05-08T13:44:49;8.80;;;4.25;;
31386;SDS011;69978;50.096;8.448;2023-05-08T13:47:15;8.80;;;4.38;;
31386;SDS011;69978;50.096;8.448;2023-05-08T13:49:41;6.45;;;4.40;;
31386;SDS011;69978;50.096;8.448;2023-05-08T13:52:08;7.57;;;4.20;;
31386;SDS011;69978;50.096;8.448;2023-05-08T13:54:34;6.32;;;4.00;;
31386;SDS011;69978;50.096;8.448;2023-05-08T13:56:59;6.05;;;4.05;;
31386;SDS011;69978;50.096;8.448;2023-05-08T13:59:26;11.88;;;4.13;;
31386;SDS011;69978;50.096;8.448;2023-05-08T14:01:52;7.47;;;4.10;;
31386;SDS011;69978;50.096;8.448;2023-05-08T14:04:18;6.57;;;3.67;;
31386;SDS011;69978;50.096;8.448;2023-05-08T14:06:44;6.90;;;4.32;;
31386;SDS011;69978;50.096;8.448;2023-05-08T14:09:10;11.80;;;4.32;;
31386;SDS011;69978;50.096;8.448;2023-05-08T14:11:35;5.68;;;3.92;;
31386;SDS011;69978;50.096;8.448;2023-05-08T14:14:01;6.88;;;3.85;;
31386;SDS011;69978;50.096;8.448;2023-05-08T14:16:27;12.15;;;4.10;;
31386;SDS011;69978;50.096;8.448;2023-05-08T14:18:52;13.02;;;4.20;;
31386;SDS011;69978;50.096;8.448;2023-05-08T14:21:18;8.27;;;4.30;;
31386;SDS011;69978;50.096;8.448;2023-05-08T14:23:44;9.80;;;4.22;;
31386;SDS011;69978;50.096;8.448;2023-05-08T14:26:09;6.78;;;3.92;;
31386;SDS011;69978;50.096;8.448;2023-05-08T14:28:35;6.60;;;4.05;;
31386;SDS011;69978;50.096;8.448;2023-05-08T14:31:00;6.35;;;3.83;;
31386;SDS011;69978;50.096;8.448;2023-05-08T14:33:26;8.52;;;4.00;;
31386;SDS011;69978;50.096;8.448;2023-05-08T14:35:52;8.70;;;4.20;;
31386;SDS011;69978;50.096;8.448;2023-05-08T14:38:17;8.98;;;4.35;;
31386;SDS011;69978;50.096;8.448;2023-05-08T14:40:43;7.95;;;3.92;;
31386;SDS011;69978;50.096;8.448;2023-05-08T14:43:09;8.00;;;4.82;;
31386;SDS011;69978;50.096;8.448;2023-05-08T14:45:34;5.47;;;4.00;;
31386;SDS011;69978;50.096;8.448;2023-05-08T14:48:00;7.35;;;4.30;;
31386;SDS011;69978;50.096;8.448;2023-05-08T14:50:25;9.00;;;4.25;;
31386;SDS011;69978;50.096;8.448;2023-05-08T14:52:54;7.03;;;3.97;;
31386;SDS011;69978;50.096;8.448;2023-05-08T14:55:20;8.88;;;4.20;;
31386;SDS011;69978;50.096;8.448;2023-05-08T14:57:46;10.30;;;4.10;;
31386;SDS011;69978;50.096;8.448;2023-05-08T15:00:12;7.38;;;3.88;;
31386;SDS011;69978;50.096;8.448;2023-05-08T15:02:38;9.45;;;4.10;;
31386;SDS011;69978;50.096;8.448;2023-05-08T15:05:05;9.40;;;3.80;;
31386;SDS011;69978;50.096;8.448;2023-05-08T15:07:31;8.48;;;4.32;;
31386;SDS011;69978;50.096;8.448;2023-05-08T15:09:56;8.18;;;4.07;;
31386;SDS011;69978;50.096;8.448;2023-05-08T15:12:22;8.77;;;4.13;;
31386;SDS011;69978;50.096;8.448;2023-05-08T15:14:48;11.77;;;4.50;;
31386;SDS011;69978;50.096;8.448;2023-05-08T15:17:13;5.85;;;3.70;;
31386;SDS011;69978;50.096;8.448;2023-05-08T15:19:39;5.63;;;3.80;;
31386;SDS011;69978;50.096;8.448;2023-05-08T15:22:06;7.70;;;4.25;;
31386;SDS011;69978;50.096;8.448;2023-05-08T15:24:32;10.90;;;5.00;;
31386;SDS011;69978;50.096;8.448;2023-05-08T15:26:58;10.32;;;4.57;;
31386;SDS011;69978;50.096;8.448;2023-05-08T15:29:24;7.75;;;4.47;;
31386;SDS011;69978;50.096;8.448;2023-05-08T15:32:02;9.38;;;5.07;;
31386;SDS011;69978;50.096;8.448;2023-05-08T15:34:34;8.02;;;4.82;;
31386;SDS011;69978;50.096;8.448;2023-05-08T15:37:00;7.80;;;4.63;;
31386;SDS011;69978;50.096;8.448;2023-05-08T15:39:25;9.55;;;4.28;;
31386;SDS011;69978;50.096;8.448;2023-05-08T15:41:51;9.23;;;5.13;;
31386;SDS011;69978;50.096;8.448;2023-05-08T15:44:19;8.93;;;4.35;;
31386;SDS011;69978;50.096;8.448;2023-05-08T15:46:45;10.10;;;4.38;;